sensor_id;sensor_type;location;lat;lon;timestamp;P1;durP1;ratioP1;P2;durP2;ratioP2
36797;SDS011;22748;8.426;99.512;2023-05-15T00:01:29;14.63;;;12.48;;
36797;SDS011;22748;8.426;99.512;2023-05-15T00:04:07;27.83;;;20.55;;
36797;SDS011;22748;8.426;99.512;2023-05-15T00:06:39;21.55;;;14.52;;
36797;SDS011;22748;8.426;99.512;2023-05-15T00:09:12;17.83;;;13.93;;
36797;SDS011;22748;8.426;99.512;2023-05-15T00:11:43;23.48;;;14.00;;
36797;SDS011;22748;8.426;99.512;2023-05-15T00:14:19;42.22;;;28.70;;
36797;SDS011;22748;8.426;99.512;2023-05-15T00:16:50;30.85;;;22.95;;
36797;SDS011;22748;8.426;99.512;2023-05-15T00:19:22;46.65;;;33.03;;
36797;SDS011;22748;8.426;99.512;2023-05-15T00:21:58;54.58;;;36.47;;
36797;SDS011;22748;8.426;99.512;2023-05-15T00:24:36;25.38;;;18.02;;
36797;SDS011;22748;8.426;99.512;2023-05-15T00:27:07;22.70;;;16.08;;
36797;SDS011;22748;8.426;99.512;2023-05-15T00:29:39;22.33;;;16.90;;
36797;SDS011;22748;8.426;99.512;2023-05-15T00:32:10;23.17;;;18.48;;
36797;SDS011;22748;8.426;99.512;2023-05-15T00:34:47;23.13;;;16.38;;
36797;SDS011;22748;8.426;99.512;2023-05-15T00:37:20;20.88;;;16.63;;
36797;SDS011;22748;8.426;99.512;2023-05-15T00:39:59;26.95;;;17.13;;
36797;SDS011;22748;8.426;99.512;2023-05-15T00:42:30;45.55;;;30.02;;
36797;SDS011;22748;8.426;99.512;2023-05-15T00:45:10;95.10;;;74.85;;
36797;SDS011;22748;8.426;99.512;2023-05-15T00:47:42;36.38;;;30.02;;
36797;SDS011;22748;8.426;99.512;2023-05-15T00:50:16;19.42;;;14.70;;
36797;SDS011;22748;8.426;99.512;2023-05-15T00:52:47;14.05;;;10.25;;
36797;SDS011;22748;8.426;99.512;2023-05-15T00:55:22;11.68;;;10.50;;
36797;SDS011;22748;8.426;99.512;2023-05-15T00:57:53;15.90;;;10.55;;
36797;SDS011;22748;8.426;99.512;2023-05-15T01:00:25;14.57;;;10.20;;
36797;SDS011;22748;8.426;99.512;2023-05-15T01:02:59;13.18;;;9.85;;
36797;SDS011;22748;8.426;99.512;2023-05-15T01:05:30;18.03;;;10.37;;
36797;SDS011;22748;8.426;99.512;2023-05-15T01:08:05;10.98;;;9.88;;
36797;SDS011;22748;8.426;99.512;2023-05-15T01:10:44;13.85;;;9.32;;
36797;SDS011;22748;8.426;99.512;2023-05-15T01:13:16;14.75;;;9.52;;
36797;SDS011;22748;8.426;99.512;2023-05-15T01:15:49;16.95;;;9.68;;
36797;SDS011;22748;8.426;99.512;2023-05-15T01:18:23;17.38;;;9.77;;
36797;SDS011;22748;8.426;99.512;2023-05-15T01:21:05;14.38;;;8.95;;
36797;SDS011;22748;8.426;99.512;2023-05-15T01:24:10;14.63;;;8.57;;
36797;SDS011;22748;8.426;99.512;2023-05-15T01:27:11;15.25;;;9.13;;
36797;SDS011;22748;8.426;99.512;2023-05-15T01:29:50;15.38;;;8.68;;
36797;SDS011;22748;8.426;99.512;2023-05-15T01:32:33;11.50;;;8.00;;
36797;SDS011;22748;8.426;99.512;2023-05-15T01:35:13;13.15;;;8.52;;
36797;SDS011;22748;8.426;99.512;2023-05-15T01:37:50;14.48;;;7.55;;
36797;SDS011;22748;8.426;99.512;2023-05-15T01:40:28;10.95;;;7.07;;
36797;SDS011;22748;8.426;99.512;2023-05-15T01:43:02;12.67;;;6.93;;
36797;SDS011;22748;8.426;99.512;2023-05-15T01:45:36;9.85;;;6.40;;
36797;SDS011;22748;8.426;99.512;2023-05-15T01:48:08;18.88;;;9.13;;
36797;SDS011;22748;8.426;99.512;2023-05-15T01:50:42;15.88;;;8.05;;
36797;SDS011;22748;8.426;99.512;2023-05-15T01:53:14;13.20;;;7.90;;
36797;SDS011;22748;8.426;99.512;2023-05-15T01:55:52;11.65;;;7.78;;
36797;SDS011;22748;8.426;99.512;2023-05-15T01:58:35;14.23;;;6.85;;
36797;SDS011;22748;8.426;99.512;2023-05-15T02:01:08;11.13;;;7.20;;
36797;SDS011;22748;8.426;99.512;2023-05-15T02:03:41;17.40;;;9.15;;
36797;SDS011;22748;8.426;99.512;2023-05-15T02:06:13;18.55;;;9.07;;
36797;SDS011;22748;8.426;99.512;2023-05-15T02:08:45;13.45;;;8.20;;
36797;SDS011;22748;8.426;99.512;2023-05-15T02:11:17;15.30;;;8.18;;
36797;SDS011;22748;8.426;99.512;2023-05-15T02:13:51;14.75;;;8.23;;
36797;SDS011;22748;8.426;99.512;2023-05-15T02:16:22;21.13;;;9.50;;
36797;SDS011;22748;8.426;99.512;2023-05-15T02:18:54;15.00;;;8.05;;
36797;SDS011;22748;8.426;99.512;2023-05-15T02:21:25;22.27;;;8.43;;
36797;SDS011;22748;8.426;99.512;2023-05-15T02:23:57;15.82;;;7.97;;
36797;SDS011;22748;8.426;99.512;2023-05-15T02:26:31;15.20;;;7.50;;
36797;SDS011;22748;8.426;99.512;2023-05-15T02:29:12;13.60;;;7.80;;
36797;SDS011;22748;8.426;99.512;2023-05-15T02:31:54;13.70;;;7.68;;
36797;SDS011;22748;8.426;99.512;2023-05-15T02:34:44;22.05;;;8.35;;
36797;SDS011;22748;8.426;99.512;2023-05-15T02:37:27;19.73;;;10.40;;
36797;SDS011;22748;8.426;99.512;2023-05-15T02:40:06;14.35;;;7.80;;
36797;SDS011;22748;8.426;99.512;2023-05-15T02:42:49;16.73;;;8.23;;
36797;SDS011;22748;8.426;99.512;2023-05-15T02:45:25;14.90;;;8.02;;
36797;SDS011;22748;8.426;99.512;2023-05-15T02:47:57;17.48;;;8.25;;
36797;SDS011;22748;8.426;99.512;2023-05-15T02:50:35;16.27;;;8.40;;
36797;SDS011;22748;8.426;99.512;2023-05-15T02:53:06;16.15;;;8.13;;
36797;SDS011;22748;8.426;99.512;2023-05-15T02:55:40;13.00;;;7.95;;
36797;SDS011;22748;8.426;99.512;2023-05-15T02:58:13;16.38;;;8.55;;
36797;SDS011;22748;8.426;99.512;2023-05-15T03:00:49;13.75;;;8.20;;
36797;SDS011;22748;8.426;99.512;2023-05-15T03:03:35;17.33;;;7.80;;
36797;SDS011;22748;8.426;99.512;2023-05-15T03:06:07;18.42;;;9.48;;
36797;SDS011;22748;8.426;99.512;2023-05-15T03:08:37;17.98;;;8.73;;
36797;SDS011;22748;8.426;99.512;2023-05-15T03:11:10;16.35;;;8.25;;
36797;SDS011;22748;8.426;99.512;2023-05-15T03:13:46;11.20;;;8.38;;
36797;SDS011;22748;8.426;99.512;2023-05-15T03:16:19;13.63;;;8.50;;
36797;SDS011;22748;8.426;99.512;2023-05-15T03:18:52;12.57;;;8.70;;
36797;SDS011;22748;8.426;99.512;2023-05-15T03:21:24;10.27;;;7.72;;
36797;SDS011;22748;8.426;99.512;2023-05-15T03:23:56;14.73;;;8.55;;
36797;SDS011;22748;8.426;99.512;2023-05-15T03:26:27;15.73;;;9.63;;
36797;SDS011;22748;8.426;99.512;2023-05-15T03:29:08;16.05;;;9.35;;
36797;SDS011;22748;8.426;99.512;2023-05-15T03:31:52;16.58;;;9.35;;
36797;SDS011;22748;8.426;99.512;2023-05-15T03:34:27;15.32;;;9.45;;
36797;SDS011;22748;8.426;99.512;2023-05-15T03:37:00;14.55;;;9.20;;
36797;SDS011;22748;8.426;99.512;2023-05-15T03:39:30;12.40;;;9.73;;
36797;SDS011;22748;8.426;99.512;2023-05-15T03:42:06;13.07;;;8.82;;
36797;SDS011;22748;8.426;99.512;2023-05-15T03:44:39;13.93;;;9.10;;
36797;SDS011;22748;8.426;99.512;2023-05-15T03:47:19;13.57;;;8.77;;
36797;SDS011;22748;8.426;99.512;2023-05-15T03:49:54;13.07;;;9.45;;
36797;SDS011;22748;8.426;99.512;2023-05-15T03:52:27;16.17;;;9.77;;
36797;SDS011;22748;8.426;99.512;2023-05-15T03:55:00;14.73;;;9.48;;
36797;SDS011;22748;8.426;99.512;2023-05-15T03:57:33;13.13;;;9.23;;
36797;SDS011;22748;8.426;99.512;2023-05-15T04:00:07;13.23;;;9.32;;
36797;SDS011;22748;8.426;99.512;2023-05-15T04:02:43;14.98;;;9.27;;
36797;SDS011;22748;8.426;99.512;2023-05-15T04:05:19;21.88;;;10.50;;
36797;SDS011;22748;8.426;99.512;2023-05-15T04:07:50;15.23;;;9.55;;
36797;SDS011;22748;8.426;99.512;2023-05-15T04:10:21;12.82;;;9.70;;
36797;SDS011;22748;8.426;99.512;2023-05-15T04:12:54;18.52;;;9.00;;
36797;SDS011;22748;8.426;99.512;2023-05-15T04:15:25;13.23;;;9.75;;
36797;SDS011;22748;8.426;99.512;2023-05-15T04:18:02;14.68;;;9.35;;
36797;SDS011;22748;8.426;99.512;2023-05-15T04:20:36;12.98;;;9.57;;
36797;SDS011;22748;8.426;99.512;2023-05-15T04:23:09;11.60;;;8.82;;
36797;SDS011;22748;8.426;99.512;2023-05-15T04:25:45;15.02;;;10.10;;
36797;SDS011;22748;8.426;99.512;2023-05-15T04:28:20;16.35;;;9.75;;
36797;SDS011;22748;8.426;99.512;2023-05-15T04:30:52;15.90;;;10.65;;
36797;SDS011;22748;8.426;99.512;2023-05-15T04:33:26;13.15;;;9.73;;
36797;SDS011;22748;8.426;99.512;2023-05-15T04:36:00;13.82;;;10.05;;
36797;SDS011;22748;8.426;99.512;2023-05-15T04:38:32;14.55;;;8.98;;
36797;SDS011;22748;8.426;99.512;2023-05-15T04:41:05;12.93;;;8.88;;
36797;SDS011;22748;8.426;99.512;2023-05-15T04:43:37;14.85;;;9.50;;
36797;SDS011;22748;8.426;99.512;2023-05-15T04:46:08;16.30;;;9.02;;
36797;SDS011;22748;8.426;99.512;2023-05-15T04:48:48;19.77;;;9.43;;
36797;SDS011;22748;8.426;99.512;2023-05-15T04:51:26;17.85;;;10.60;;
36797;SDS011;22748;8.426;99.512;2023-05-15T04:53:57;15.15;;;9.93;;
36797;SDS011;22748;8.426;99.512;2023-05-15T04:56:31;13.68;;;10.07;;
36797;SDS011;22748;8.426;99.512;2023-05-15T04:59:04;14.85;;;9.80;;
36797;SDS011;22748;8.426;99.512;2023-05-15T05:01:36;15.05;;;9.93;;
36797;SDS011;22748;8.426;99.512;2023-05-15T05:04:11;16.02;;;9.73;;
36797;SDS011;22748;8.426;99.512;2023-05-15T05:06:45;15.23;;;9.25;;
36797;SDS011;22748;8.426;99.512;2023-05-15T05:09:19;15.07;;;9.80;;
36797;SDS011;22748;8.426;99.512;2023-05-15T05:11:53;13.75;;;9.95;;
36797;SDS011;22748;8.426;99.512;2023-05-15T05:14:26;13.52;;;9.88;;
36797;SDS011;22748;8.426;99.512;2023-05-15T05:17:00;15.73;;;10.18;;
36797;SDS011;22748;8.426;99.512;2023-05-15T05:19:33;15.90;;;10.80;;
36797;SDS011;22748;8.426;99.512;2023-05-15T05:22:05;17.00;;;10.75;;
36797;SDS011;22748;8.426;99.512;2023-05-15T05:24:37;13.63;;;10.55;;
36797;SDS011;22748;8.426;99.512;2023-05-15T05:27:13;37.75;;;12.13;;
36797;SDS011;22748;8.426;99.512;2023-05-15T05:29:50;16.85;;;9.70;;
36797;SDS011;22748;8.426;99.512;2023-05-15T05:32:23;24.00;;;10.80;;
36797;SDS011;22748;8.426;99.512;2023-05-15T05:35:00;15.43;;;10.95;;
36797;SDS011;22748;8.426;99.512;2023-05-15T05:37:38;21.10;;;10.55;;
36797;SDS011;22748;8.426;99.512;2023-05-15T05:40:12;13.02;;;10.57;;
36797;SDS011;22748;8.426;99.512;2023-05-15T05:42:50;19.30;;;12.15;;
36797;SDS011;22748;8.426;99.512;2023-05-15T05:45:25;18.23;;;12.07;;
36797;SDS011;22748;8.426;99.512;2023-05-15T05:47:57;17.02;;;12.38;;
36797;SDS011;22748;8.426;99.512;2023-05-15T05:50:31;15.38;;;11.52;;
36797;SDS011;22748;8.426;99.512;2023-05-15T05:53:02;13.80;;;11.73;;
36797;SDS011;22748;8.426;99.512;2023-05-15T05:55:34;14.95;;;11.80;;
36797;SDS011;22748;8.426;99.512;2023-05-15T05:58:06;15.20;;;11.82;;
36797;SDS011;22748;8.426;99.512;2023-05-15T06:00:38;14.90;;;11.57;;
36797;SDS011;22748;8.426;99.512;2023-05-15T06:03:09;12.70;;;11.40;;
36797;SDS011;22748;8.426;99.512;2023-05-15T06:05:46;13.57;;;11.27;;
36797;SDS011;22748;8.426;99.512;2023-05-15T06:08:20;19.55;;;12.98;;
36797;SDS011;22748;8.426;99.512;2023-05-15T06:10:55;15.55;;;12.30;;
36797;SDS011;22748;8.426;99.512;2023-05-15T06:13:30;15.45;;;12.25;;
36797;SDS011;22748;8.426;99.512;2023-05-15T06:16:01;19.00;;;12.45;;
36797;SDS011;22748;8.426;99.512;2023-05-15T06:18:41;21.85;;;12.68;;
36797;SDS011;22748;8.426;99.512;2023-05-15T06:21:19;19.77;;;13.15;;
36797;SDS011;22748;8.426;99.512;2023-05-15T06:23:52;16.13;;;12.90;;
36797;SDS011;22748;8.426;99.512;2023-05-15T06:26:26;19.60;;;12.02;;
36797;SDS011;22748;8.426;99.512;2023-05-15T06:29:02;19.80;;;12.38;;
36797;SDS011;22748;8.426;99.512;2023-05-15T06:31:36;14.50;;;11.63;;
36797;SDS011;22748;8.426;99.512;2023-05-15T06:34:11;16.38;;;12.43;;
36797;SDS011;22748;8.426;99.512;2023-05-15T06:36:51;20.27;;;13.75;;
36797;SDS011;22748;8.426;99.512;2023-05-15T06:39:26;24.05;;;13.45;;
36797;SDS011;22748;8.426;99.512;2023-05-15T06:42:06;13.25;;;11.68;;
36797;SDS011;22748;8.426;99.512;2023-05-15T06:44:38;19.67;;;13.32;;
36797;SDS011;22748;8.426;99.512;2023-05-15T06:47:21;16.02;;;12.88;;
36797;SDS011;22748;8.426;99.512;2023-05-15T06:49:54;12.57;;;11.35;;
36797;SDS011;22748;8.426;99.512;2023-05-15T06:52:40;12.65;;;11.02;;
36797;SDS011;22748;8.426;99.512;2023-05-15T06:55:13;10.95;;;9.95;;
36797;SDS011;22748;8.426;99.512;2023-05-15T06:57:45;14.30;;;10.90;;
36797;SDS011;22748;8.426;99.512;2023-05-15T07:00:17;13.00;;;10.18;;
36797;SDS011;22748;8.426;99.512;2023-05-15T07:02:52;11.20;;;10.07;;
36797;SDS011;22748;8.426;99.512;2023-05-15T07:05:28;16.13;;;10.73;;
36797;SDS011;22748;8.426;99.512;2023-05-15T07:08:10;15.65;;;12.18;;
36797;SDS011;22748;8.426;99.512;2023-05-15T07:10:43;15.27;;;12.00;;
36797;SDS011;22748;8.426;99.512;2023-05-15T07:13:17;14.68;;;12.85;;
36797;SDS011;22748;8.426;99.512;2023-05-15T07:15:50;13.95;;;12.55;;
36797;SDS011;22748;8.426;99.512;2023-05-15T07:18:25;17.23;;;13.90;;
36797;SDS011;22748;8.426;99.512;2023-05-15T07:21:06;28.95;;;12.05;;
36797;SDS011;22748;8.426;99.512;2023-05-15T07:23:43;12.77;;;11.27;;
36797;SDS011;22748;8.426;99.512;2023-05-15T07:26:22;12.88;;;10.95;;
36797;SDS011;22748;8.426;99.512;2023-05-15T07:28:58;10.77;;;9.77;;
36797;SDS011;22748;8.426;99.512;2023-05-15T07:31:38;10.15;;;9.13;;
36797;SDS011;22748;8.426;99.512;2023-05-15T07:34:15;11.48;;;8.65;;
36797;SDS011;22748;8.426;99.512;2023-05-15T07:36:50;11.55;;;9.23;;
36797;SDS011;22748;8.426;99.512;2023-05-15T07:39:27;10.85;;;9.70;;
36797;SDS011;22748;8.426;99.512;2023-05-15T07:41:58;11.25;;;9.32;;
36797;SDS011;22748;8.426;99.512;2023-05-15T07:44:33;11.85;;;10.38;;
36797;SDS011;22748;8.426;99.512;2023-05-15T07:47:10;10.88;;;9.60;;
36797;SDS011;22748;8.426;99.512;2023-05-15T07:49:44;11.90;;;9.80;;
36797;SDS011;22748;8.426;99.512;2023-05-15T07:52:20;10.52;;;9.45;;
36797;SDS011;22748;8.426;99.512;2023-05-15T07:54:53;11.50;;;10.35;;
36797;SDS011;22748;8.426;99.512;2023-05-15T07:57:32;10.93;;;9.82;;
36797;SDS011;22748;8.426;99.512;2023-05-15T08:00:11;10.30;;;9.20;;
36797;SDS011;22748;8.426;99.512;2023-05-15T08:02:48;11.68;;;10.48;;
36797;SDS011;22748;8.426;99.512;2023-05-15T08:05:25;12.10;;;10.90;;
36797;SDS011;22748;8.426;99.512;2023-05-15T08:08:00;12.23;;;10.98;;
36797;SDS011;22748;8.426;99.512;2023-05-15T08:10:35;12.25;;;10.88;;
36797;SDS011;22748;8.426;99.512;2023-05-15T08:13:16;12.70;;;11.40;;
36797;SDS011;22748;8.426;99.512;2023-05-15T08:15:55;14.85;;;11.98;;
36797;SDS011;22748;8.426;99.512;2023-05-15T08:18:26;13.10;;;11.68;;
36797;SDS011;22748;8.426;99.512;2023-05-15T08:21:00;15.95;;;11.70;;
36797;SDS011;22748;8.426;99.512;2023-05-15T08:23:34;12.45;;;11.15;;
36797;SDS011;22748;8.426;99.512;2023-05-15T08:26:17;13.13;;;11.93;;
36797;SDS011;22748;8.426;99.512;2023-05-15T08:28:51;15.55;;;12.48;;
36797;SDS011;22748;8.426;99.512;2023-05-15T08:31:24;11.73;;;10.55;;
36797;SDS011;22748;8.426;99.512;2023-05-15T08:34:00;12.20;;;11.00;;
36797;SDS011;22748;8.426;99.512;2023-05-15T08:36:37;15.32;;;11.82;;
36797;SDS011;22748;8.426;99.512;2023-05-15T08:39:15;14.50;;;10.88;;
36797;SDS011;22748;8.426;99.512;2023-05-15T08:42:04;14.52;;;11.07;;
36797;SDS011;22748;8.426;99.512;2023-05-15T08:44:43;14.02;;;10.80;;
36797;SDS011;22748;8.426;99.512;2023-05-15T08:47:16;15.07;;;10.77;;
36797;SDS011;22748;8.426;99.512;2023-05-15T08:49:53;15.50;;;11.23;;
36797;SDS011;22748;8.426;99.512;2023-05-15T08:52:32;13.07;;;10.90;;
36797;SDS011;22748;8.426;99.512;2023-05-15T08:55:10;13.13;;;10.90;;
36797;SDS011;22748;8.426;99.512;2023-05-15T08:57:47;16.70;;;11.90;;
36797;SDS011;22748;8.426;99.512;2023-05-15T09:00:20;13.60;;;11.93;;
36797;SDS011;22748;8.426;99.512;2023-05-15T09:02:53;18.35;;;12.57;;
36797;SDS011;22748;8.426;99.512;2023-05-15T09:05:24;20.88;;;15.15;;
36797;SDS011;22748;8.426;99.512;2023-05-15T09:07:54;15.50;;;13.85;;
36797;SDS011;22748;8.426;99.512;2023-05-15T09:10:29;17.33;;;15.18;;
36797;SDS011;22748;8.426;99.512;2023-05-15T09:13:05;34.28;;;24.80;;
36797;SDS011;22748;8.426;99.512;2023-05-15T09:15:37;20.38;;;16.65;;
36797;SDS011;22748;8.426;99.512;2023-05-15T09:18:07;16.75;;;14.52;;
36797;SDS011;22748;8.426;99.512;2023-05-15T09:20:39;15.90;;;13.07;;
36797;SDS011;22748;8.426;99.512;2023-05-15T09:25:59;17.17;;;13.20;;
36797;SDS011;22748;8.426;99.512;2023-05-15T09:28:32;18.05;;;14.05;;
36797;SDS011;22748;8.426;99.512;2023-05-15T09:31:03;14.20;;;12.60;;
36797;SDS011;22748;8.426;99.512;2023-05-15T09:33:34;14.68;;;13.10;;
36797;SDS011;22748;8.426;99.512;2023-05-15T09:36:05;14.68;;;13.18;;
36797;SDS011;22748;8.426;99.512;2023-05-15T09:38:39;17.05;;;14.20;;
36797;SDS011;22748;8.426;99.512;2023-05-15T09:41:13;18.83;;;13.93;;
36797;SDS011;22748;8.426;99.512;2023-05-15T09:43:54;16.85;;;13.60;;
36797;SDS011;22748;8.426;99.512;2023-05-15T09:46:25;16.45;;;13.85;;
36797;SDS011;22748;8.426;99.512;2023-05-15T09:48:55;14.65;;;13.10;;
36797;SDS011;22748;8.426;99.512;2023-05-15T09:51:28;22.50;;;15.52;;
36797;SDS011;22748;8.426;99.512;2023-05-15T09:53:59;18.55;;;15.23;;
36797;SDS011;22748;8.426;99.512;2023-05-15T09:56:32;17.23;;;14.30;;
36797;SDS011;22748;8.426;99.512;2023-05-15T09:59:04;18.33;;;14.57;;
36797;SDS011;22748;8.426;99.512;2023-05-15T10:01:41;16.92;;;14.57;;
36797;SDS011;22748;8.426;99.512;2023-05-15T10:04:12;17.08;;;15.23;;
36797;SDS011;22748;8.426;99.512;2023-05-15T10:06:45;19.50;;;16.35;;
36797;SDS011;22748;8.426;99.512;2023-05-15T10:09:20;22.55;;;18.10;;
36797;SDS011;22748;8.426;99.512;2023-05-15T10:11:50;24.30;;;19.92;;
36797;SDS011;22748;8.426;99.512;2023-05-15T10:16:52;25.55;;;19.38;;
36797;SDS011;22748;8.426;99.512;2023-05-15T10:19:24;23.80;;;20.08;;
36797;SDS011;22748;8.426;99.512;2023-05-15T10:21:56;22.10;;;19.52;;
36797;SDS011;22748;8.426;99.512;2023-05-15T10:26:57;21.37;;;18.80;;
36797;SDS011;22748;8.426;99.512;2023-05-15T10:29:34;21.25;;;18.63;;
36797;SDS011;22748;8.426;99.512;2023-05-15T10:32:10;23.85;;;20.48;;
36797;SDS011;22748;8.426;99.512;2023-05-15T10:34:42;28.58;;;21.65;;
36797;SDS011;22748;8.426;99.512;2023-05-15T10:37:15;34.17;;;26.77;;
36797;SDS011;22748;8.426;99.512;2023-05-15T10:39:47;34.67;;;28.00;;
36797;SDS011;22748;8.426;99.512;2023-05-15T10:42:19;34.55;;;26.60;;
36797;SDS011;22748;8.426;99.512;2023-05-15T10:44:53;33.55;;;26.23;;
36797;SDS011;22748;8.426;99.512;2023-05-15T10:47:25;30.00;;;23.38;;
36797;SDS011;22748;8.426;99.512;2023-05-15T10:49:57;23.20;;;19.00;;
36797;SDS011;22748;8.426;99.512;2023-05-15T10:52:28;21.33;;;18.52;;
36797;SDS011;22748;8.426;99.512;2023-05-15T10:55:01;20.58;;;18.08;;
36797;SDS011;22748;8.426;99.512;2023-05-15T10:57:34;20.10;;;18.15;;
36797;SDS011;22748;8.426;99.512;2023-05-15T11:00:12;19.63;;;17.05;;
36797;SDS011;22748;8.426;99.512;2023-05-15T11:02:53;19.38;;;17.13;;
36797;SDS011;22748;8.426;99.512;2023-05-15T11:05:23;21.40;;;16.63;;
36797;SDS011;22748;8.426;99.512;2023-05-15T11:11:00;24.08;;;16.80;;
36797;SDS011;22748;8.426;99.512;2023-05-15T11:22:29;19.42;;;16.60;;
36797;SDS011;22748;8.426;99.512;2023-05-15T11:25:01;22.52;;;18.95;;
36797;SDS011;22748;8.426;99.512;2023-05-15T11:27:37;29.05;;;21.33;;
36797;SDS011;22748;8.426;99.512;2023-05-15T11:30:09;38.20;;;25.33;;
36797;SDS011;22748;8.426;99.512;2023-05-15T11:32:44;37.75;;;25.40;;
36797;SDS011;22748;8.426;99.512;2023-05-15T11:37:54;34.53;;;23.88;;
36797;SDS011;22748;8.426;99.512;2023-05-15T11:40:26;34.25;;;23.17;;
36797;SDS011;22748;8.426;99.512;2023-05-15T11:43:00;26.98;;;20.63;;
36797;SDS011;22748;8.426;99.512;2023-05-15T11:45:35;24.27;;;18.92;;
36797;SDS011;22748;8.426;99.512;2023-05-15T11:48:11;21.85;;;18.25;;
36797;SDS011;22748;8.426;99.512;2023-05-15T11:50:43;23.25;;;17.77;;
36797;SDS011;22748;8.426;99.512;2023-05-15T11:53:14;24.73;;;18.85;;
36797;SDS011;22748;8.426;99.512;2023-05-15T11:55:45;23.98;;;19.17;;
36797;SDS011;22748;8.426;99.512;2023-05-15T11:58:17;23.33;;;19.58;;
36797;SDS011;22748;8.426;99.512;2023-05-15T12:00:49;26.40;;;19.88;;
36797;SDS011;22748;8.426;99.512;2023-05-15T12:03:21;23.15;;;20.02;;
36797;SDS011;22748;8.426;99.512;2023-05-15T12:05:52;35.28;;;23.92;;
36797;SDS011;22748;8.426;99.512;2023-05-15T12:08:23;45.03;;;26.88;;
36797;SDS011;22748;8.426;99.512;2023-05-15T12:10:56;31.02;;;23.73;;
36797;SDS011;22748;8.426;99.512;2023-05-15T12:16:00;28.63;;;25.52;;
36797;SDS011;22748;8.426;99.512;2023-05-15T12:21:16;31.88;;;24.05;;
36797;SDS011;22748;8.426;99.512;2023-05-15T12:23:50;34.92;;;27.20;;
36797;SDS011;22748;8.426;99.512;2023-05-15T12:26:21;34.72;;;28.90;;
36797;SDS011;22748;8.426;99.512;2023-05-15T12:28:54;34.22;;;28.45;;
36797;SDS011;22748;8.426;99.512;2023-05-15T12:31:25;35.55;;;28.48;;
36797;SDS011;22748;8.426;99.512;2023-05-15T12:33:57;34.85;;;27.42;;
36797;SDS011;22748;8.426;99.512;2023-05-15T12:36:28;42.42;;;31.58;;
36797;SDS011;22748;8.426;99.512;2023-05-15T12:39:02;38.28;;;33.22;;
36797;SDS011;22748;8.426;99.512;2023-05-15T12:41:36;39.35;;;31.65;;
36797;SDS011;22748;8.426;99.512;2023-05-15T12:44:06;38.90;;;30.77;;
36797;SDS011;22748;8.426;99.512;2023-05-15T12:46:44;39.60;;;28.13;;
36797;SDS011;22748;8.426;99.512;2023-05-15T12:49:22;36.25;;;28.80;;
36797;SDS011;22748;8.426;99.512;2023-05-15T12:51:53;34.40;;;27.33;;
36797;SDS011;22748;8.426;99.512;2023-05-15T12:54:25;37.58;;;28.95;;
36797;SDS011;22748;8.426;99.512;2023-05-15T12:56:56;34.03;;;26.42;;
36797;SDS011;22748;8.426;99.512;2023-05-15T12:59:28;34.05;;;25.75;;
36797;SDS011;22748;8.426;99.512;2023-05-15T13:01:58;36.30;;;27.48;;
36797;SDS011;22748;8.426;99.512;2023-05-15T13:04:33;28.48;;;24.20;;
36797;SDS011;22748;8.426;99.512;2023-05-15T13:07:06;32.70;;;26.38;;
36797;SDS011;22748;8.426;99.512;2023-05-15T13:09:43;39.17;;;30.02;;
36797;SDS011;22748;8.426;99.512;2023-05-15T13:12:18;42.72;;;32.88;;
36797;SDS011;22748;8.426;99.512;2023-05-15T13:14:51;42.55;;;34.70;;
36797;SDS011;22748;8.426;99.512;2023-05-15T13:17:22;48.63;;;36.80;;
36797;SDS011;22748;8.426;99.512;2023-05-15T13:22:23;45.38;;;34.95;;
36797;SDS011;22748;8.426;99.512;2023-05-15T13:24:59;46.53;;;37.50;;
36797;SDS011;22748;8.426;99.512;2023-05-15T13:27:30;48.47;;;38.13;;
36797;SDS011;22748;8.426;99.512;2023-05-15T13:30:01;46.50;;;38.08;;
36797;SDS011;22748;8.426;99.512;2023-05-15T13:32:33;48.03;;;37.35;;
36797;SDS011;22748;8.426;99.512;2023-05-15T13:35:06;43.20;;;33.88;;
36797;SDS011;22748;8.426;99.512;2023-05-15T13:37:38;39.10;;;32.38;;
36797;SDS011;22748;8.426;99.512;2023-05-15T13:40:12;39.40;;;32.42;;
36797;SDS011;22748;8.426;99.512;2023-05-15T13:42:47;38.65;;;30.02;;
36797;SDS011;22748;8.426;99.512;2023-05-15T13:45:23;39.40;;;31.33;;
36797;SDS011;22748;8.426;99.512;2023-05-15T13:47:54;37.53;;;30.58;;
36797;SDS011;22748;8.426;99.512;2023-05-15T13:50:31;34.90;;;29.75;;
36797;SDS011;22748;8.426;99.512;2023-05-15T13:53:02;39.05;;;29.95;;
36797;SDS011;22748;8.426;99.512;2023-05-15T13:55:35;38.80;;;29.05;;
36797;SDS011;22748;8.426;99.512;2023-05-15T13:58:07;35.92;;;28.92;;
36797;SDS011;22748;8.426;99.512;2023-05-15T14:00:38;36.28;;;28.63;;
36797;SDS011;22748;8.426;99.512;2023-05-15T14:03:10;35.10;;;29.30;;
36797;SDS011;22748;8.426;99.512;2023-05-15T14:05:42;47.10;;;37.35;;
36797;SDS011;22748;8.426;99.512;2023-05-15T14:08:13;54.00;;;41.50;;
36797;SDS011;22748;8.426;99.512;2023-05-15T14:10:43;47.08;;;37.05;;
36797;SDS011;22748;8.426;99.512;2023-05-15T14:13:14;67.32;;;51.47;;
36797;SDS011;22748;8.426;99.512;2023-05-15T14:15:45;84.18;;;65.43;;
36797;SDS011;22748;8.426;99.512;2023-05-15T14:18:16;73.90;;;56.07;;
36797;SDS011;22748;8.426;99.512;2023-05-15T14:25:48;49.08;;;38.92;;
36797;SDS011;22748;8.426;99.512;2023-05-15T14:28:22;46.58;;;37.90;;
36797;SDS011;22748;8.426;99.512;2023-05-15T14:30:54;49.13;;;37.75;;
36797;SDS011;22748;8.426;99.512;2023-05-15T14:33:33;44.27;;;37.53;;
36797;SDS011;22748;8.426;99.512;2023-05-15T14:36:08;44.05;;;36.47;;
36797;SDS011;22748;8.426;99.512;2023-05-15T14:38:39;45.45;;;37.20;;
36797;SDS011;22748;8.426;99.512;2023-05-15T14:41:11;43.33;;;35.50;;
36797;SDS011;22748;8.426;99.512;2023-05-15T14:43:43;47.13;;;35.92;;
36797;SDS011;22748;8.426;99.512;2023-05-15T14:46:15;47.72;;;35.65;;
36797;SDS011;22748;8.426;99.512;2023-05-15T14:51:18;45.38;;;34.97;;
36797;SDS011;22748;8.426;99.512;2023-05-15T14:53:48;43.40;;;34.45;;
36797;SDS011;22748;8.426;99.512;2023-05-15T14:56:22;41.85;;;35.25;;
36797;SDS011;22748;8.426;99.512;2023-05-15T14:58:54;43.60;;;36.50;;
36797;SDS011;22748;8.426;99.512;2023-05-15T15:03:55;43.25;;;34.45;;
36797;SDS011;22748;8.426;99.512;2023-05-15T15:06:29;46.00;;;34.30;;
36797;SDS011;22748;8.426;99.512;2023-05-15T15:09:00;43.22;;;34.10;;
36797;SDS011;22748;8.426;99.512;2023-05-15T15:14:01;47.08;;;34.30;;
36797;SDS011;22748;8.426;99.512;2023-05-15T15:16:31;44.25;;;35.15;;
36797;SDS011;22748;8.426;99.512;2023-05-15T15:19:02;41.22;;;33.28;;
36797;SDS011;22748;8.426;99.512;2023-05-15T15:21:35;44.08;;;36.58;;
36797;SDS011;22748;8.426;99.512;2023-05-15T15:24:06;39.55;;;33.08;;
36797;SDS011;22748;8.426;99.512;2023-05-15T15:26:37;44.33;;;35.47;;
36797;SDS011;22748;8.426;99.512;2023-05-15T15:29:07;41.75;;;34.53;;
36797;SDS011;22748;8.426;99.512;2023-05-15T15:31:38;46.47;;;35.10;;
36797;SDS011;22748;8.426;99.512;2023-05-15T15:34:09;42.83;;;33.90;;
36797;SDS011;22748;8.426;99.512;2023-05-15T15:36:42;39.83;;;33.00;;
36797;SDS011;22748;8.426;99.512;2023-05-15T15:39:12;41.65;;;33.28;;
36797;SDS011;22748;8.426;99.512;2023-05-15T15:41:43;39.20;;;32.47;;
36797;SDS011;22748;8.426;99.512;2023-05-15T15:44:13;42.05;;;32.30;;
36797;SDS011;22748;8.426;99.512;2023-05-15T15:46:44;40.78;;;32.03;;
36797;SDS011;22748;8.426;99.512;2023-05-15T15:49:15;36.40;;;31.17;;